FFT788 KLAS-KLAX
Flight info
| Callsign | FFT788 |
|---|---|
| Flight time | 0h 46m |
| Altitude | 28000 |
| Route | RADYR2 BLAQQ SHTNR ANJLL4 |
| Aircraft | A320/M-SDE3FGHIRWY/LB1 |
Departure
| Time | 2026-05-04 16:21 |
|---|---|
| Airport | Harry Reid International Airport (KLAS) |
Arrival
| Time | 2026-05-04 17:07 |
|---|---|
| Airport | Los Angeles International Airport (KLAX) |
| Time | Latitude | Longitude | Altitude | Speed | Heading |
|---|---|---|---|---|---|
| 2026-05-04 15:55 | 36.07993 | -115.13573 | 2092 ft | 0 kts | 43° |
| 2026-05-04 16:05 | 36.07981 | -115.13586 | 2090 ft | 4 kts | 45° |
| 2026-05-04 16:06 | 36.07963 | -115.13611 | 2090 ft | 4 kts | 54° |
| 2026-05-04 16:06 | 36.07954 | -115.13661 | 2090 ft | 0 kts | 135° |
| 2026-05-04 16:08 | 36.07867 | -115.13576 | 2087 ft | 12 kts | 177° |
| 2026-05-04 16:09 | 36.07828 | -115.13785 | 2091 ft | 19 kts | 270° |
| 2026-05-04 16:09 | 36.07827 | -115.14179 | 2095 ft | 24 kts | 270° |
| 2026-05-04 16:10 | 36.07841 | -115.14547 | 2108 ft | 20 kts | 275° |
| 2026-05-04 16:11 | 36.07872 | -115.15001 | 2128 ft | 18 kts | 275° |
| 2026-05-04 16:11 | 36.07879 | -115.15174 | 2131 ft | 22 kts | 270° |
| 2026-05-04 16:12 | 36.08274 | -115.15559 | 2130 ft | 33 kts | 335° |
| 2026-05-04 16:12 | 36.08908 | -115.15677 | 2110 ft | 35 kts | 25° |
| 2026-05-04 16:13 | 36.09418 | -115.15383 | 2099 ft | 38 kts | 25° |
| 2026-05-04 16:13 | 36.09641 | -115.15256 | 2088 ft | 6 kts | 26° |
| 2026-05-04 16:14 | 36.09677 | -115.15236 | 2087 ft | 0 kts | 24° |
| 2026-05-04 16:15 | 36.09707 | -115.15219 | 2085 ft | 5 kts | 24° |
| 2026-05-04 16:16 | 36.09765 | -115.15200 | 2083 ft | 0 kts | 346° |
| 2026-05-04 16:17 | 36.09777 | -115.15205 | 2082 ft | 2 kts | 339° |
| 2026-05-04 16:18 | 36.09802 | -115.15235 | 2082 ft | 0 kts | 298° |
| 2026-05-04 16:18 | 36.09806 | -115.15244 | 2082 ft | 3 kts | 298° |
| 2026-05-04 16:19 | 36.09833 | -115.15321 | 2084 ft | 9 kts | 282° |
| 2026-05-04 16:19 | 36.09793 | -115.15394 | 2087 ft | 0 kts | 205° |
| 2026-05-04 16:20 | 36.09779 | -115.15402 | 2087 ft | 13 kts | 205° |
| 2026-05-04 16:20 | 36.08710 | -115.16014 | 2125 ft | 143 kts | 205° |
| 2026-05-04 16:21 | 36.05771 | -115.17810 | 4024 ft | 160 kts | 204° |
| 2026-05-04 16:22 | 36.03907 | -115.18891 | 4565 ft | 197 kts | 203° |
| 2026-05-04 16:22 | 35.99522 | -115.21358 | 6029 ft | 253 kts | 201° |
| 2026-05-04 16:23 | 35.94445 | -115.23657 | 8693 ft | 264 kts | 199° |
| 2026-05-04 16:24 | 35.87378 | -115.26816 | 12125 ft | 273 kts | 201° |
| 2026-05-04 16:25 | 35.83804 | -115.28434 | 13776 ft | 275 kts | 202° |
| 2026-05-04 16:26 | 35.76554 | -115.31721 | 16846 ft | 280 kts | 204° |
| 2026-05-04 16:26 | 35.71026 | -115.34222 | 19004 ft | 284 kts | 205° |
| 2026-05-04 16:27 | 35.67290 | -115.35909 | 20311 ft | 288 kts | 206° |
| 2026-05-04 16:28 | 35.61528 | -115.38309 | 22095 ft | 299 kts | 198° |
| 2026-05-04 16:28 | 35.55065 | -115.38359 | 23745 ft | 317 kts | 186° |
| 2026-05-04 16:29 | 35.46169 | -115.37900 | 25859 ft | 316 kts | 194° |
| 2026-05-04 16:30 | 35.40081 | -115.40167 | 27383 ft | 300 kts | 214° |
| 2026-05-04 16:31 | 35.36390 | -115.42537 | 27906 ft | 299 kts | 214° |
| 2026-05-04 16:31 | 35.30608 | -115.46249 | 27924 ft | 332 kts | 214° |
| 2026-05-04 16:32 | 35.24127 | -115.50392 | 27944 ft | 368 kts | 213° |
| 2026-05-04 16:33 | 35.19464 | -115.53356 | 27944 ft | 384 kts | 213° |
| 2026-05-04 16:33 | 35.14705 | -115.56377 | 27952 ft | 386 kts | 213° |
| 2026-05-04 16:34 | 35.10501 | -115.60293 | 27967 ft | 379 kts | 228° |
| 2026-05-04 16:34 | 35.08688 | -115.62624 | 27972 ft | 378 kts | 228° |
| 2026-05-04 16:35 | 35.03230 | -115.69603 | 27967 ft | 379 kts | 228° |
| 2026-05-04 16:35 | 34.97769 | -115.76559 | 27969 ft | 378 kts | 228° |
| 2026-05-04 16:36 | 34.95953 | -115.78871 | 27967 ft | 378 kts | 228° |
| 2026-05-04 16:36 | 34.92315 | -115.83500 | 27964 ft | 378 kts | 228° |
| 2026-05-04 16:37 | 34.88674 | -115.88128 | 27964 ft | 378 kts | 228° |
| 2026-05-04 16:37 | 34.86854 | -115.90442 | 27967 ft | 378 kts | 228° |
| 2026-05-04 16:37 | 34.83211 | -115.95059 | 27969 ft | 378 kts | 227° |
| 2026-05-04 16:38 | 34.79573 | -115.99675 | 27970 ft | 378 kts | 227° |
| 2026-05-04 16:39 | 34.74114 | -116.06593 | 27979 ft | 378 kts | 227° |
| 2026-05-04 16:39 | 34.70489 | -116.11218 | 27979 ft | 377 kts | 227° |
| 2026-05-04 16:40 | 34.66848 | -116.15870 | 27977 ft | 377 kts | 227° |
| 2026-05-04 16:40 | 34.63227 | -116.20477 | 27984 ft | 377 kts | 227° |
| 2026-05-04 16:41 | 34.59594 | -116.25081 | 27987 ft | 377 kts | 227° |
| 2026-05-04 16:41 | 34.54147 | -116.31974 | 27997 ft | 377 kts | 227° |
| 2026-05-04 16:42 | 34.48700 | -116.38866 | 28000 ft | 377 kts | 227° |
| 2026-05-04 16:43 | 34.45063 | -116.43449 | 28014 ft | 377 kts | 227° |
| 2026-05-04 16:43 | 34.40332 | -116.50976 | 28002 ft | 378 kts | 242° |
| 2026-05-04 16:45 | 34.33304 | -116.68055 | 28012 ft | 377 kts | 241° |
| 2026-05-04 16:46 | 34.29930 | -116.76432 | 27519 ft | 352 kts | 242° |
| 2026-05-04 16:46 | 34.27859 | -116.81624 | 27015 ft | 340 kts | 242° |
| 2026-05-04 16:47 | 34.25786 | -116.86756 | 26515 ft | 339 kts | 242° |
| 2026-05-04 16:47 | 34.23711 | -116.91873 | 25570 ft | 334 kts | 242° |
| 2026-05-04 16:48 | 34.20817 | -116.99395 | 23837 ft | 327 kts | 249° |
| 2026-05-04 16:48 | 34.20130 | -117.01990 | 23362 ft | 323 kts | 249° |
| 2026-05-04 16:49 | 34.18748 | -117.07084 | 22347 ft | 317 kts | 248° |
| 2026-05-04 16:49 | 34.17380 | -117.12112 | 21368 ft | 314 kts | 249° |
| 2026-05-04 16:50 | 34.16030 | -117.17082 | 20414 ft | 310 kts | 249° |
| 2026-05-04 16:50 | 34.14677 | -117.22010 | 19455 ft | 308 kts | 249° |
| 2026-05-04 16:51 | 34.13328 | -117.26899 | 18506 ft | 305 kts | 249° |
| 2026-05-04 16:51 | 34.12658 | -117.29323 | 18013 ft | 304 kts | 249° |
| 2026-05-04 16:51 | 34.11316 | -117.34158 | 17029 ft | 303 kts | 249° |
| 2026-05-04 16:52 | 34.10005 | -117.38969 | 16095 ft | 301 kts | 250° |
| 2026-05-04 16:52 | 34.09398 | -117.41384 | 15628 ft | 301 kts | 251° |
| 2026-05-04 16:53 | 34.08216 | -117.46209 | 14700 ft | 300 kts | 251° |
| 2026-05-04 16:53 | 34.06775 | -117.53573 | 13302 ft | 301 kts | 257° |
| 2026-05-04 16:54 | 34.06412 | -117.56057 | 12881 ft | 300 kts | 257° |
| 2026-05-04 16:55 | 34.05068 | -117.65142 | 11166 ft | 298 kts | 258° |
| 2026-05-04 16:55 | 34.04345 | -117.70062 | 10268 ft | 298 kts | 259° |
| 2026-05-04 16:56 | 34.03646 | -117.74805 | 9919 ft | 278 kts | 259° |
| 2026-05-04 16:56 | 34.02619 | -117.81705 | 8820 ft | 282 kts | 259° |
| 2026-05-04 16:57 | 34.02267 | -117.84034 | 8411 ft | 281 kts | 259° |
| 2026-05-04 16:57 | 34.01577 | -117.88605 | 7408 ft | 275 kts | 260° |
| 2026-05-04 16:58 | 34.00574 | -117.95344 | 5756 ft | 268 kts | 260° |
| 2026-05-04 16:58 | 34.00245 | -117.97514 | 5260 ft | 259 kts | 260° |
| 2026-05-04 16:59 | 33.99645 | -118.01481 | 5130 ft | 224 kts | 260° |
| 2026-05-04 17:00 | 33.98448 | -118.08113 | 4782 ft | 180 kts | 263° |
| 2026-05-04 17:00 | 33.98039 | -118.12146 | 4585 ft | 149 kts | 264° |
| 2026-05-04 17:01 | 33.97794 | -118.14605 | 4285 ft | 148 kts | 264° |
| 2026-05-04 17:01 | 33.97549 | -118.17054 | 3891 ft | 146 kts | 263° |
| 2026-05-04 17:02 | 33.97306 | -118.19476 | 3502 ft | 145 kts | 263° |
| 2026-05-04 17:02 | 33.97066 | -118.21870 | 3120 ft | 144 kts | 263° |
| 2026-05-04 17:03 | 33.96945 | -118.23067 | 2925 ft | 144 kts | 264° |
| 2026-05-04 17:03 | 33.96822 | -118.24292 | 2754 ft | 154 kts | 264° |
| 2026-05-04 17:03 | 33.96578 | -118.26710 | 2359 ft | 138 kts | 264° |
| 2026-05-04 17:04 | 33.96349 | -118.28981 | 1979 ft | 135 kts | 264° |
| 2026-05-04 17:04 | 33.96122 | -118.31216 | 1618 ft | 134 kts | 264° |
| 2026-05-04 17:05 | 33.95898 | -118.33432 | 1264 ft | 133 kts | 265° |
| 2026-05-04 17:05 | 33.95674 | -118.35632 | 916 ft | 130 kts | 263° |
| 2026-05-04 17:06 | 33.95457 | -118.37776 | 602 ft | 128 kts | 262° |
| 2026-05-04 17:06 | 33.95353 | -118.38842 | 392 ft | 128 kts | 262° |
| 2026-05-04 17:07 | 33.95132 | -118.40963 | 110 ft | 121 kts | 262° |
| 2026-05-04 17:07 | 33.95073 | -118.41554 | 108 ft | 88 kts | 263° |
| 2026-05-04 17:07 | 33.94998 | -118.42112 | 108 ft | 27 kts | 239° |
| 2026-05-04 17:07 | 33.94916 | -118.42225 | 103 ft | 14 kts | 221° |
| 2026-05-04 17:08 | 33.94874 | -118.42265 | 103 ft | 0 kts | 209° |
| 2026-05-04 17:08 | 33.94868 | -118.42268 | 105 ft | 4 kts | 201° |
| 2026-05-04 17:08 | 33.94852 | -118.42274 | 106 ft | 0 kts | 195° |
| 2026-05-04 17:09 | 33.94830 | -118.42278 | 107 ft | 9 kts | 187° |
| 2026-05-04 17:09 | 33.94738 | -118.42275 | 103 ft | 16 kts | 172° |
| 2026-05-04 17:09 | 33.94683 | -118.42215 | 100 ft | 12 kts | 82° |
| 2026-05-04 17:10 | 33.94703 | -118.42036 | 98 ft | 10 kts | 83° |
| 2026-05-04 17:10 | 33.94723 | -118.41818 | 98 ft | 8 kts | 85° |
| 2026-05-04 17:11 | 33.94730 | -118.41755 | 98 ft | 8 kts | 81° |
| 2026-05-04 17:11 | 33.94744 | -118.41617 | 98 ft | 25 kts | 83° |
| 2026-05-04 17:11 | 33.94805 | -118.41171 | 100 ft | 29 kts | 83° |
| 2026-05-04 17:12 | 33.94826 | -118.40944 | 100 ft | 17 kts | 83° |
| 2026-05-04 17:12 | 33.94725 | -118.40949 | 96 ft | 9 kts | 227° |
| 2026-05-04 17:13 | 33.94701 | -118.40972 | 96 ft | 5 kts | 219° |
| 2026-05-04 17:14 | 33.94682 | -118.40991 | 95 ft | 0 kts | 219° |